Tropical Cyclones
[Index]
Main Index Home Page Stock Weather Photos Extreme Storms Discussion Storm News and Storm Chasing Reports Tropical Cyclones / Hurricanes / Typhoons Weather Data and Links Wild Fires / Bushfires Weather Observation Techniques Weather Picture Catalogue Tornado Pictures and Reports Stock Video Footage and DVDs for sale
Season 2006-2007 Tropical Cyclone JACOB Track Map
Season 2006-2007 Summaries (Operational Data): [AU] [SIO] [SPAC] [SH]
<<- Previous TC | 2006-2007 Season | Next TC ->>

click for intensity scale information  Lat/long Grid: Show Hide

 Date Labels: Show Hide

Operational Tropical Cyclone Data : JTWC Advisories | BoM Warnings

Name: JACOB
Number: 0718

05 Mar 2007 00:00 UTC to 12 Mar 2007 06:00 UTC

    date/time    lat    long     hPa   cat  kts
2007-03-05 00   14.3   114.8    1000         25          
2007-03-05 06   14.5   114.1     998         25          
2007-03-05 13   14.4   113.6     994         30          
2007-03-05 19   14.3   112.6     994         30          
2007-03-06 00   14.4   111.4     994         30          
2007-03-06 07   13.6   110.1     994         30          
2007-03-06 12   13.4   109.5     994         30          
2007-03-06 18   13.2   108.9     994         30          
2007-03-07 00   12.8   108.3     988    1    45          
2007-03-07 06   12.5   107.5     976    2    50          
2007-03-07 13   12.9   107.3     976    2    50          
2007-03-07 19   12.9   106.2     964    2    60          
2007-03-08 01   13.0   105.6     964    3    70          
2007-03-08 04   12.6   105.8     972    2    60          
2007-03-08 07   12.7   105.8     968    2    60          
2007-03-08 13   12.9   106.4     968    2    55          
2007-03-08 18   13.3   106.5     968    2    50          
2007-03-09 01   14.0   107.9     972    2    50          
2007-03-09 06   14.5   108.1     968    2    60          
2007-03-09 12   15.4   108.9     960    3    65          
2007-03-09 18   15.6   109.8     954    3    75          
2007-03-10 00   16.0   111.1     956    3    75          
2007-03-10 06   16.9   111.6     968    2    55          
2007-03-10 12   18.0   112.4     970    2    55          
2007-03-10 18   18.6   113.3     970    2    55          
2007-03-11 00   18.7   113.8     976    2    50          
2007-03-11 06   19.4   114.6     984    1    40          
2007-03-11 12   19.6   115.7     984    1    40          
2007-03-11 18   19.9   117.0     984    1    40          
2007-03-12 00   20.0   118.3     984    1    40          
2007-03-12 06   20.3   119.5     994         30          
Winds are 10-min average.

Tropical cyclone tracks developed by Michael Bath using operational warnings and advisories and Google Maps.


[Australian Severe Weather index] [Copyright Notice] [Email Contacts] [Search This Site] [Privacy Policy]
Document: tropical_cyclone_jacob.htm Updated: 28 May 2013